AIC1CN VAAH-VIDP
Flight info
| Callsign | AIC1CN |
|---|---|
| Flight time | 1h 2m |
| Altitude | 41000 |
| Route | UUD1A UUD A347 UKASO UKASO7H |
| Aircraft | B789/H-SDE1E2E3FGHIJ2J3J4J5M1RWXY/LB1D1 |
Departure
| Time | 2026-04-29 17:58 |
|---|---|
| Airport | Sardar Vallabh Patel International Airport (VAAH) |
Arrival
| Time | 2026-04-29 19:00 |
|---|---|
| Airport | Indira Gandhi International Airport (VIDP) |
| Time | Latitude | Longitude | Altitude | Speed | Heading |
|---|---|---|---|---|---|
| 2026-04-29 17:29 | 23.07375 | 72.62463 | 191 ft | 0 kts | 315° |
| 2026-04-29 17:47 | 23.07373 | 72.62465 | 192 ft | 3 kts | 315° |
| 2026-04-29 17:47 | 23.07361 | 72.62479 | 207 ft | 4 kts | 315° |
| 2026-04-29 17:47 | 23.07341 | 72.62497 | 207 ft | 4 kts | 343° |
| 2026-04-29 17:47 | 23.07317 | 72.62496 | 207 ft | 4 kts | 27° |
| 2026-04-29 17:48 | 23.07299 | 72.62482 | 207 ft | 1 kts | 46° |
| 2026-04-29 17:48 | 23.07296 | 72.62478 | 207 ft | 0 kts | 46° |
| 2026-04-29 17:51 | 23.07298 | 72.62482 | 207 ft | 1 kts | 46° |
| 2026-04-29 17:51 | 23.07339 | 72.62528 | 204 ft | 17 kts | 46° |
| 2026-04-29 17:52 | 23.07427 | 72.62628 | 203 ft | 19 kts | 46° |
| 2026-04-29 17:52 | 23.07491 | 72.62702 | 207 ft | 20 kts | 47° |
| 2026-04-29 17:52 | 23.07505 | 72.62819 | 204 ft | 10 kts | 133° |
| 2026-04-29 17:52 | 23.07444 | 72.62890 | 205 ft | 17 kts | 130° |
| 2026-04-29 17:53 | 23.07429 | 72.62953 | 196 ft | 7 kts | 92° |
| 2026-04-29 17:53 | 23.07439 | 72.63004 | 208 ft | 7 kts | 72° |
| 2026-04-29 17:53 | 23.07442 | 72.63014 | 207 ft | 0 kts | 72° |
| 2026-04-29 17:53 | 23.07443 | 72.63015 | 207 ft | 2 kts | 72° |
| 2026-04-29 17:54 | 23.07460 | 72.63073 | 208 ft | 14 kts | 72° |
| 2026-04-29 17:54 | 23.07507 | 72.63205 | 207 ft | 23 kts | 58° |
| 2026-04-29 17:54 | 23.07641 | 72.63359 | 214 ft | 31 kts | 44° |
| 2026-04-29 17:54 | 23.07797 | 72.63526 | 210 ft | 32 kts | 45° |
| 2026-04-29 17:55 | 23.07962 | 72.63702 | 211 ft | 34 kts | 44° |
| 2026-04-29 17:55 | 23.08128 | 72.63880 | 208 ft | 34 kts | 45° |
| 2026-04-29 17:55 | 23.08295 | 72.64058 | 213 ft | 33 kts | 45° |
| 2026-04-29 17:55 | 23.08460 | 72.64237 | 214 ft | 33 kts | 44° |
| 2026-04-29 17:56 | 23.08630 | 72.64419 | 208 ft | 35 kts | 44° |
| 2026-04-29 17:56 | 23.08803 | 72.64595 | 205 ft | 21 kts | 31° |
| 2026-04-29 17:56 | 23.08831 | 72.64629 | 209 ft | 1 kts | 90° |
| 2026-04-29 17:56 | 23.08822 | 72.64635 | 205 ft | 2 kts | 144° |
| 2026-04-29 17:57 | 23.08806 | 72.64621 | 210 ft | 5 kts | 239° |
| 2026-04-29 17:57 | 23.08755 | 72.64550 | 207 ft | 26 kts | 224° |
| 2026-04-29 17:57 | 23.08500 | 72.64278 | 212 ft | 85 kts | 224° |
| 2026-04-29 17:57 | 23.07893 | 72.63627 | 206 ft | 157 kts | 224° |
| 2026-04-29 17:58 | 23.07120 | 72.62759 | 1079 ft | 142 kts | 231° |
| 2026-04-29 17:58 | 23.06656 | 72.61976 | 2372 ft | 117 kts | 261° |
| 2026-04-29 17:58 | 23.06560 | 72.60973 | 2928 ft | 152 kts | 267° |
| 2026-04-29 17:58 | 23.06534 | 72.59838 | 3994 ft | 150 kts | 272° |
| 2026-04-29 17:59 | 23.06827 | 72.58653 | 4738 ft | 183 kts | 301° |
| 2026-04-29 17:59 | 23.07774 | 72.57584 | 5577 ft | 209 kts | 311° |
| 2026-04-29 17:59 | 23.08837 | 72.56342 | 6430 ft | 238 kts | 311° |
| 2026-04-29 17:59 | 23.09507 | 72.55482 | 6979 ft | 254 kts | 309° |
| 2026-04-29 18:00 | 23.10671 | 72.53890 | 7986 ft | 272 kts | 307° |
| 2026-04-29 18:00 | 23.11835 | 72.52294 | 9435 ft | 274 kts | 307° |
| 2026-04-29 18:00 | 23.13060 | 72.50644 | 10495 ft | 291 kts | 308° |
| 2026-04-29 18:00 | 23.14396 | 72.48851 | 11187 ft | 318 kts | 308° |
| 2026-04-29 18:01 | 23.15880 | 72.46934 | 11879 ft | 342 kts | 314° |
| 2026-04-29 18:01 | 23.17889 | 72.45541 | 13202 ft | 346 kts | 334° |
| 2026-04-29 18:01 | 23.20231 | 72.44926 | 14364 ft | 356 kts | 353° |
| 2026-04-29 18:01 | 23.22728 | 72.45219 | 15563 ft | 368 kts | 12° |
| 2026-04-29 18:02 | 23.25064 | 72.46479 | 16658 ft | 385 kts | 32° |
| 2026-04-29 18:02 | 23.27098 | 72.48440 | 17656 ft | 396 kts | 39° |
| 2026-04-29 18:02 | 23.29041 | 72.50607 | 18613 ft | 403 kts | 41° |
| 2026-04-29 18:02 | 23.31002 | 72.52808 | 19554 ft | 406 kts | 39° |
| 2026-04-29 18:03 | 23.33034 | 72.54957 | 20466 ft | 410 kts | 38° |
| 2026-04-29 18:03 | 23.35103 | 72.57120 | 21359 ft | 415 kts | 39° |
| 2026-04-29 18:03 | 23.37175 | 72.59346 | 22229 ft | 420 kts | 39° |
| 2026-04-29 18:03 | 23.39256 | 72.61604 | 23016 ft | 426 kts | 39° |
| 2026-04-29 18:04 | 23.41441 | 72.63785 | 23760 ft | 423 kts | 31° |
| 2026-04-29 18:04 | 23.43803 | 72.65710 | 24479 ft | 426 kts | 31° |
| 2026-04-29 18:04 | 23.46181 | 72.67678 | 25163 ft | 430 kts | 31° |
| 2026-04-29 18:04 | 23.48535 | 72.69632 | 25836 ft | 433 kts | 31° |
| 2026-04-29 18:05 | 23.50951 | 72.71626 | 26495 ft | 437 kts | 31° |
| 2026-04-29 18:05 | 23.53384 | 72.73630 | 27129 ft | 440 kts | 31° |
| 2026-04-29 18:05 | 23.55834 | 72.75655 | 27758 ft | 444 kts | 31° |
| 2026-04-29 18:05 | 23.58305 | 72.77702 | 28355 ft | 448 kts | 31° |
| 2026-04-29 18:06 | 23.60796 | 72.79764 | 28948 ft | 451 kts | 31° |
| 2026-04-29 18:06 | 23.63307 | 72.81841 | 29524 ft | 455 kts | 31° |
| 2026-04-29 18:06 | 23.65834 | 72.83933 | 30025 ft | 458 kts | 31° |
| 2026-04-29 18:06 | 23.68388 | 72.86051 | 30457 ft | 462 kts | 31° |
| 2026-04-29 18:07 | 23.70955 | 72.88179 | 30867 ft | 466 kts | 31° |
| 2026-04-29 18:07 | 23.73548 | 72.90330 | 31313 ft | 469 kts | 31° |
| 2026-04-29 18:07 | 23.76149 | 72.92491 | 31739 ft | 471 kts | 30° |
| 2026-04-29 18:07 | 23.78768 | 72.94663 | 32085 ft | 475 kts | 30° |
| 2026-04-29 18:08 | 23.81417 | 72.96863 | 32511 ft | 477 kts | 30° |
| 2026-04-29 18:08 | 23.84066 | 72.99066 | 32847 ft | 481 kts | 30° |
| 2026-04-29 18:08 | 23.86740 | 73.01290 | 33129 ft | 485 kts | 30° |
| 2026-04-29 18:08 | 23.89436 | 73.03534 | 33488 ft | 487 kts | 30° |
| 2026-04-29 18:09 | 23.92145 | 73.05789 | 33774 ft | 491 kts | 30° |
| 2026-04-29 18:09 | 23.94863 | 73.08053 | 34070 ft | 493 kts | 30° |
| 2026-04-29 18:09 | 23.97588 | 73.10326 | 34498 ft | 492 kts | 30° |
| 2026-04-29 18:09 | 24.00305 | 73.12592 | 34890 ft | 492 kts | 30° |
| 2026-04-29 18:10 | 24.03026 | 73.14862 | 35304 ft | 492 kts | 31° |
| 2026-04-29 18:10 | 24.05749 | 73.17135 | 35670 ft | 492 kts | 31° |
| 2026-04-29 18:10 | 24.08437 | 73.19381 | 36126 ft | 491 kts | 30° |
| 2026-04-29 18:10 | 24.11144 | 73.21645 | 36634 ft | 489 kts | 30° |
| 2026-04-29 18:11 | 24.13843 | 73.23902 | 37110 ft | 488 kts | 30° |
| 2026-04-29 18:11 | 24.16542 | 73.26157 | 37516 ft | 488 kts | 30° |
| 2026-04-29 18:11 | 24.19243 | 73.28418 | 37930 ft | 488 kts | 30° |
| 2026-04-29 18:11 | 24.21934 | 73.30682 | 38306 ft | 490 kts | 32° |
| 2026-04-29 18:12 | 24.24444 | 73.33283 | 38657 ft | 500 kts | 41° |
| 2026-04-29 18:12 | 24.26603 | 73.36307 | 38979 ft | 506 kts | 47° |
| 2026-04-29 18:12 | 24.28670 | 73.39418 | 39332 ft | 505 kts | 47° |
| 2026-04-29 18:12 | 24.30729 | 73.42536 | 39687 ft | 504 kts | 48° |
| 2026-04-29 18:13 | 24.32752 | 73.45616 | 40013 ft | 504 kts | 48° |
| 2026-04-29 18:13 | 24.34802 | 73.48731 | 40363 ft | 503 kts | 48° |
| 2026-04-29 18:13 | 24.36848 | 73.51832 | 40731 ft | 502 kts | 48° |
| 2026-04-29 18:14 | 24.40961 | 73.58080 | 40792 ft | 506 kts | 49° |
| 2026-04-29 18:14 | 24.45044 | 73.64302 | 40787 ft | 500 kts | 49° |
| 2026-04-29 18:15 | 24.49106 | 73.70483 | 40790 ft | 499 kts | 49° |
| 2026-04-29 18:15 | 24.53165 | 73.76681 | 40795 ft | 500 kts | 49° |
| 2026-04-29 18:16 | 24.57224 | 73.82879 | 40792 ft | 500 kts | 49° |
| 2026-04-29 18:16 | 24.61573 | 73.88776 | 40846 ft | 490 kts | 36° |
| 2026-04-29 18:17 | 24.67109 | 73.92950 | 40831 ft | 481 kts | 25° |
| 2026-04-29 18:17 | 24.72859 | 73.96613 | 40834 ft | 481 kts | 24° |
| 2026-04-29 18:18 | 24.78662 | 74.00295 | 40823 ft | 482 kts | 24° |
| 2026-04-29 18:18 | 24.84451 | 74.03984 | 40814 ft | 479 kts | 24° |
| 2026-04-29 18:19 | 24.90227 | 74.07661 | 40797 ft | 479 kts | 24° |
| 2026-04-29 18:19 | 24.96005 | 74.11348 | 40797 ft | 480 kts | 24° |
| 2026-04-29 18:20 | 25.01795 | 74.15045 | 40796 ft | 482 kts | 24° |
| 2026-04-29 18:20 | 25.07595 | 74.18754 | 40798 ft | 482 kts | 24° |
| 2026-04-29 18:21 | 25.13402 | 74.22469 | 40790 ft | 482 kts | 24° |
| 2026-04-29 18:21 | 25.19205 | 74.26189 | 40789 ft | 481 kts | 24° |
| 2026-04-29 18:22 | 25.24952 | 74.29874 | 40786 ft | 481 kts | 24° |
| 2026-04-29 18:22 | 25.30740 | 74.33591 | 40777 ft | 480 kts | 24° |
| 2026-04-29 18:23 | 25.36512 | 74.37302 | 40787 ft | 479 kts | 24° |
| 2026-04-29 18:23 | 25.42275 | 74.41011 | 40792 ft | 479 kts | 24° |
| 2026-04-29 18:24 | 25.48016 | 74.44708 | 40785 ft | 482 kts | 24° |
| 2026-04-29 18:24 | 25.53817 | 74.48451 | 40784 ft | 483 kts | 24° |
| 2026-04-29 18:25 | 25.59611 | 74.52193 | 40776 ft | 481 kts | 24° |
| 2026-04-29 18:25 | 25.65394 | 74.55931 | 40774 ft | 480 kts | 24° |
| 2026-04-29 18:26 | 25.71160 | 74.59663 | 40768 ft | 479 kts | 24° |
| 2026-04-29 18:26 | 25.76920 | 74.63395 | 40769 ft | 480 kts | 24° |
| 2026-04-29 18:27 | 25.82699 | 74.67142 | 40758 ft | 482 kts | 24° |
| 2026-04-29 18:27 | 25.88495 | 74.70907 | 40764 ft | 483 kts | 24° |
| 2026-04-29 18:28 | 25.94305 | 74.74686 | 40761 ft | 482 kts | 24° |
| 2026-04-29 18:28 | 26.00049 | 74.78424 | 40756 ft | 481 kts | 24° |
| 2026-04-29 18:29 | 26.05820 | 74.82184 | 40766 ft | 480 kts | 24° |
| 2026-04-29 18:29 | 26.11603 | 74.85956 | 40759 ft | 482 kts | 24° |
| 2026-04-29 18:30 | 26.17399 | 74.89743 | 40761 ft | 483 kts | 24° |
| 2026-04-29 18:30 | 26.23201 | 74.93537 | 40754 ft | 484 kts | 24° |
| 2026-04-29 18:31 | 26.29006 | 74.97338 | 40744 ft | 484 kts | 24° |
| 2026-04-29 18:31 | 26.34813 | 75.01145 | 40749 ft | 484 kts | 24° |
| 2026-04-29 18:32 | 26.40612 | 75.04949 | 40743 ft | 484 kts | 24° |
| 2026-04-29 18:32 | 26.49300 | 75.10643 | 40738 ft | 484 kts | 23° |
| 2026-04-29 18:33 | 26.55120 | 75.14449 | 40742 ft | 485 kts | 24° |
| 2026-04-29 18:33 | 26.60932 | 75.18261 | 40733 ft | 485 kts | 23° |
| 2026-04-29 18:34 | 26.64825 | 75.20813 | 40735 ft | 485 kts | 24° |
| 2026-04-29 18:34 | 26.72564 | 75.25898 | 40734 ft | 486 kts | 23° |
| 2026-04-29 18:35 | 26.78398 | 75.29735 | 40734 ft | 487 kts | 23° |
| 2026-04-29 18:35 | 26.84234 | 75.33579 | 40735 ft | 487 kts | 24° |
| 2026-04-29 18:36 | 26.89085 | 75.36776 | 40735 ft | 486 kts | 23° |
| 2026-04-29 18:36 | 26.95868 | 75.41254 | 40737 ft | 486 kts | 24° |
| 2026-04-29 18:37 | 27.01683 | 75.45098 | 40757 ft | 486 kts | 23° |
| 2026-04-29 18:37 | 27.06566 | 75.48328 | 40733 ft | 486 kts | 23° |
| 2026-04-29 18:38 | 27.12390 | 75.52187 | 40743 ft | 486 kts | 23° |
| 2026-04-29 18:38 | 27.18223 | 75.56055 | 40744 ft | 487 kts | 23° |
| 2026-04-29 18:39 | 27.24062 | 75.59932 | 40748 ft | 487 kts | 23° |
| 2026-04-29 18:39 | 27.29895 | 75.63811 | 40748 ft | 487 kts | 23° |
| 2026-04-29 18:40 | 27.35695 | 75.67672 | 40753 ft | 487 kts | 23° |
| 2026-04-29 18:40 | 27.41513 | 75.71550 | 40750 ft | 485 kts | 23° |
| 2026-04-29 18:41 | 27.53129 | 75.79306 | 40755 ft | 485 kts | 23° |
| 2026-04-29 18:42 | 27.58910 | 75.83175 | 40756 ft | 483 kts | 23° |
| 2026-04-29 18:42 | 27.64801 | 75.86695 | 40763 ft | 473 kts | 13° |
| 2026-04-29 18:43 | 27.71055 | 75.88876 | 40755 ft | 470 kts | 9° |
| 2026-04-29 18:43 | 27.77344 | 75.90988 | 40752 ft | 472 kts | 9° |
| 2026-04-29 18:44 | 27.83614 | 75.93105 | 40743 ft | 472 kts | 9° |
| 2026-04-29 18:44 | 27.89881 | 75.95221 | 40498 ft | 465 kts | 9° |
| 2026-04-29 18:45 | 27.92989 | 75.96269 | 39765 ft | 467 kts | 9° |
| 2026-04-29 18:45 | 27.96101 | 75.97318 | 39101 ft | 467 kts | 9° |
| 2026-04-29 18:45 | 27.99194 | 75.98365 | 38421 ft | 468 kts | 9° |
| 2026-04-29 18:45 | 28.02292 | 75.99418 | 38224 ft | 457 kts | 9° |
| 2026-04-29 18:46 | 28.05290 | 76.00442 | 38221 ft | 442 kts | 8° |
| 2026-04-29 18:46 | 28.08189 | 76.01423 | 38203 ft | 427 kts | 8° |
| 2026-04-29 18:46 | 28.10996 | 76.02369 | 38162 ft | 414 kts | 8° |
| 2026-04-29 18:46 | 28.13732 | 76.03295 | 37884 ft | 407 kts | 8° |
| 2026-04-29 18:47 | 28.16443 | 76.04246 | 37411 ft | 409 kts | 12° |
| 2026-04-29 18:47 | 28.19046 | 76.05611 | 36855 ft | 419 kts | 21° |
| 2026-04-29 18:47 | 28.21481 | 76.07485 | 35959 ft | 439 kts | 32° |
| 2026-04-29 18:47 | 28.23738 | 76.09956 | 34879 ft | 463 kts | 43° |
| 2026-04-29 18:48 | 28.25662 | 76.13019 | 33747 ft | 488 kts | 55° |
| 2026-04-29 18:48 | 28.27253 | 76.16485 | 32465 ft | 502 kts | 59° |
| 2026-04-29 18:48 | 28.28833 | 76.20058 | 31208 ft | 511 kts | 60° |
| 2026-04-29 18:48 | 28.30418 | 76.23687 | 29893 ft | 505 kts | 61° |
| 2026-04-29 18:49 | 28.31960 | 76.27193 | 28321 ft | 487 kts | 61° |
| 2026-04-29 18:49 | 28.33449 | 76.30544 | 26818 ft | 472 kts | 60° |
| 2026-04-29 18:49 | 28.34906 | 76.33830 | 25372 ft | 458 kts | 60° |
| 2026-04-29 18:49 | 28.36314 | 76.37029 | 24000 ft | 446 kts | 60° |
| 2026-04-29 18:50 | 28.37682 | 76.40142 | 22574 ft | 435 kts | 60° |
| 2026-04-29 18:50 | 28.39023 | 76.43182 | 21064 ft | 424 kts | 60° |
| 2026-04-29 18:50 | 28.40324 | 76.46133 | 19629 ft | 413 kts | 60° |
| 2026-04-29 18:50 | 28.41580 | 76.48991 | 18278 ft | 403 kts | 60° |
| 2026-04-29 18:51 | 28.42823 | 76.51820 | 16792 ft | 393 kts | 60° |
| 2026-04-29 18:51 | 28.44035 | 76.54578 | 15333 ft | 384 kts | 60° |
| 2026-04-29 18:51 | 28.45201 | 76.57237 | 13954 ft | 376 kts | 60° |
| 2026-04-29 18:51 | 28.46351 | 76.59860 | 12684 ft | 365 kts | 60° |
| 2026-04-29 18:52 | 28.47469 | 76.62409 | 11374 ft | 354 kts | 60° |
| 2026-04-29 18:52 | 28.48572 | 76.64887 | 10106 ft | 343 kts | 58° |
| 2026-04-29 18:52 | 28.49948 | 76.66989 | 8860 ft | 331 kts | 46° |
| 2026-04-29 18:52 | 28.51505 | 76.68871 | 7600 ft | 322 kts | 43° |
| 2026-04-29 18:53 | 28.53087 | 76.70644 | 6576 ft | 310 kts | 42° |
| 2026-04-29 18:53 | 28.54591 | 76.72284 | 5860 ft | 290 kts | 41° |
| 2026-04-29 18:53 | 28.56020 | 76.73822 | 5122 ft | 275 kts | 41° |
| 2026-04-29 18:53 | 28.57385 | 76.75288 | 4390 ft | 264 kts | 41° |
| 2026-04-29 18:54 | 28.58674 | 76.76729 | 3638 ft | 255 kts | 50° |
| 2026-04-29 18:54 | 28.59568 | 76.78363 | 3364 ft | 242 kts | 62° |
| 2026-04-29 18:54 | 28.60134 | 76.80172 | 3137 ft | 249 kts | 86° |
| 2026-04-29 18:54 | 28.59911 | 76.82124 | 3022 ft | 241 kts | 102° |
| 2026-04-29 18:55 | 28.59545 | 76.83882 | 2912 ft | 216 kts | 103° |
| 2026-04-29 18:55 | 28.59204 | 76.85483 | 2761 ft | 203 kts | 103° |
| 2026-04-29 18:55 | 28.58878 | 76.87027 | 2591 ft | 199 kts | 104° |
| 2026-04-29 18:55 | 28.58551 | 76.88495 | 2570 ft | 184 kts | 104° |
| 2026-04-29 18:56 | 28.58267 | 76.89827 | 2566 ft | 164 kts | 104° |
| 2026-04-29 18:56 | 28.58009 | 76.91038 | 2571 ft | 152 kts | 104° |
| 2026-04-29 18:56 | 28.57767 | 76.92181 | 2562 ft | 145 kts | 104° |
| 2026-04-29 18:56 | 28.57526 | 76.93309 | 2576 ft | 152 kts | 104° |
| 2026-04-29 18:57 | 28.57287 | 76.94445 | 2570 ft | 148 kts | 105° |
| 2026-04-29 18:57 | 28.57034 | 76.95608 | 2581 ft | 150 kts | 105° |
| 2026-04-29 18:57 | 28.56788 | 76.96757 | 2478 ft | 153 kts | 104° |
| 2026-04-29 18:57 | 28.56544 | 76.97910 | 2294 ft | 147 kts | 104° |
| 2026-04-29 18:58 | 28.56305 | 76.99033 | 2109 ft | 147 kts | 104° |
| 2026-04-29 18:58 | 28.56071 | 77.00138 | 1912 ft | 142 kts | 104° |
| 2026-04-29 18:58 | 28.55837 | 77.01208 | 1741 ft | 136 kts | 108° |
| 2026-04-29 18:58 | 28.55607 | 77.02255 | 1578 ft | 132 kts | 103° |
| 2026-04-29 18:59 | 28.55397 | 77.03342 | 1494 ft | 146 kts | 106° |
| 2026-04-29 18:59 | 28.55175 | 77.04389 | 1281 ft | 133 kts | 106° |
| 2026-04-29 18:59 | 28.54958 | 77.05427 | 1135 ft | 137 kts | 106° |
| 2026-04-29 18:59 | 28.54734 | 77.06462 | 912 ft | 134 kts | 105° |
| 2026-04-29 19:00 | 28.54516 | 77.07479 | 758 ft | 129 kts | 104° |
| 2026-04-29 19:00 | 28.54344 | 77.08289 | 756 ft | 80 kts | 104° |
| 2026-04-29 19:00 | 28.54248 | 77.08743 | 756 ft | 41 kts | 103° |
| 2026-04-29 19:00 | 28.54214 | 77.08939 | 753 ft | 9 kts | 83° |
| 2026-04-29 19:01 | 28.54215 | 77.08954 | 752 ft | 2 kts | 83° |
| 2026-04-29 19:01 | 28.54221 | 77.09006 | 752 ft | 12 kts | 82° |
| 2026-04-29 19:01 | 28.54243 | 77.09131 | 754 ft | 20 kts | 74° |
| 2026-04-29 19:01 | 28.54287 | 77.09319 | 753 ft | 29 kts | 79° |
| 2026-04-29 19:02 | 28.54251 | 77.09541 | 752 ft | 32 kts | 105° |
| 2026-04-29 19:02 | 28.54241 | 77.09676 | 752 ft | 17 kts | 64° |
| 2026-04-29 19:02 | 28.54403 | 77.09741 | 751 ft | 21 kts | 13° |
| 2026-04-29 19:02 | 28.54549 | 77.09781 | 753 ft | 22 kts | 12° |
| 2026-04-29 19:03 | 28.54669 | 77.09750 | 752 ft | 16 kts | 297° |
| 2026-04-29 19:03 | 28.54700 | 77.09624 | 754 ft | 17 kts | 285° |
| 2026-04-29 19:03 | 28.54732 | 77.09484 | 757 ft | 19 kts | 284° |
| 2026-04-29 19:03 | 28.54766 | 77.09331 | 754 ft | 21 kts | 284° |
| 2026-04-29 19:04 | 28.54806 | 77.09165 | 756 ft | 23 kts | 285° |
| 2026-04-29 19:04 | 28.54846 | 77.08987 | 754 ft | 24 kts | 284° |
| 2026-04-29 19:04 | 28.54902 | 77.08811 | 753 ft | 14 kts | 316° |
| 2026-04-29 19:04 | 28.54979 | 77.08790 | 754 ft | 12 kts | 339° |
| 2026-04-29 19:05 | 28.55057 | 77.08742 | 751 ft | 13 kts | 328° |
| 2026-04-29 19:05 | 28.55124 | 77.08674 | 753 ft | 10 kts | 281° |
| 2026-04-29 19:05 | 28.55109 | 77.08649 | 751 ft | 2 kts | 211° |
| 2026-04-29 19:05 | 28.55090 | 77.08643 | 755 ft | 5 kts | 199° |
| 2026-04-29 19:06 | 28.55058 | 77.08634 | 753 ft | 0 kts | 192° |